< < Back
Terminal Aerodrome Forecast


Current Version              Previous Versions:   1  2  3  4  5  6  7  8  9  

Terminal Aerodrome Forecast

350
FTUS42 KCAE 290900 AAA
TAFCAE
TAF AMD
KCAE 290932Z 2910/3006 VRB03KT P6SM SKC
     FM291600 20007KT P6SM SKC
     FM292300 VRB03KT P6SM SKC=

Latest METAR

292
SAUS80 KWBC 291000 CCA
MTRCAE
METAR KCAE 290956Z 00000KT 8SM CLR M02/M04 A3030 RMK AO2 SLP263
T10171039


USA.gov is the U.S. government's official web portal to all federal, state and local government web resources and services.